Port Sulphur, LA (70083)

12:01 PM CDT on July 30, 2016 (GMT -0500)
Venice | | Change Station

Elev 3 ft 29.35 °N, 89.44 °W | Updated 31 minutes ago

Mostly Cloudy
Mostly Cloudy
90 °F
Feels Like 105 °F
N
12
Wind Variable Wind from West

Today
High -- | Low -- °F
--% Chance of Precip.
Yesterday
High -- | Low -- °F
Precip. -- in
Pressure 30.03 in
Visibility 10.0 miles
Clouds Mostly Cloudy 2500 ft
Heat Index 105 °F
Dew Point 79 °F
Humidity 70%
Rainfall 0.00 in
Snow Depth Not available.
6:18 AM 7:52 PM
Waning Crescent, 12% visible
SPECI K1B7 301630Z 28010KT 10SM BKN025 32/26 A3003
Pressure 30.03 in
Visibility 10.0 miles
Clouds Mostly Cloudy 2500 ft
Heat Index 105 °F
Dew Point 79 °F
Humidity 70%
Rainfall 0.00 in
Snow Depth Not available.
6:18 AM 7:52 PM
Waning Crescent, 12% visible
SPECI K1B7 301630Z 28010KT 10SM BKN025 32/26 A3003

10-Day Weather Forecast

Almanac

Astronomy

Jul. 30, 2016 Rise Set
Actual Time
Civil Twilight
Nautical Twilight
Astronomical Twilight
Moon
Length of Visible Light
Length of Day
Tomorrow will be .
, % of the Moon is Illuminated

Today's Extremes

State Highs State Lows

Community

WunderPhotos

Upload Photos

1,928,598 photos uploaded!

WunderBlog® & News

Nearby

Air Quality

  Air Quality AQ Index Pollutant
Not available.

Snow Depth

Station Depth Elevation

Earthquake Activity

City Distance Mag. Time & Date
Minimum magnitude displayed is 2.5.

Coastal Water Temperatures

Place Temperature

Stations

Nearby Weather Stations

Station Location Temp. Windchill Dew Point Humidity Wind Precip. Elev Updated Type
                   

Watches & Warnings

There are currently no watches in effect.